createdAt,value
2023-02-13T00:02:14.362Z,11.50
2023-02-13T00:04:42.872Z,11.30
2023-02-13T00:07:12.706Z,11.18
2023-02-13T00:09:41.095Z,10.85
2023-02-13T00:12:09.461Z,11.52
2023-02-13T00:14:39.784Z,9.85
2023-02-13T00:17:08.126Z,11.23
2023-02-13T00:19:35.833Z,10.95
2023-02-13T00:22:03.490Z,11.05
2023-02-13T00:24:32.642Z,11.68
2023-02-13T00:27:00.360Z,10.80
2023-02-13T00:29:28.128Z,10.23
2023-02-13T00:31:55.998Z,11.40
2023-02-13T00:34:23.957Z,11.90
2023-02-13T00:36:51.545Z,11.48
2023-02-13T00:39:19.317Z,12.15
2023-02-13T00:41:48.413Z,11.77
2023-02-13T00:44:16.117Z,11.93
2023-02-13T00:46:43.876Z,10.00
2023-02-13T00:49:11.624Z,12.45
2023-02-13T00:51:39.350Z,11.35
2023-02-13T00:54:07.438Z,11.57
2023-02-13T00:56:35.171Z,12.30
2023-02-13T00:59:04.235Z,13.25
2023-02-13T01:01:32.034Z,12.85
2023-02-13T01:03:59.864Z,12.13
2023-02-13T01:06:27.661Z,13.73
2023-02-13T01:08:55.384Z,12.68
2023-02-13T01:11:23.157Z,12.63
2023-02-13T01:13:50.876Z,13.15
2023-02-13T01:16:19.958Z,11.98
2023-02-13T01:18:47.713Z,12.57
2023-02-13T01:21:18.698Z,12.27
2023-02-13T01:23:47.368Z,13.45
2023-02-13T01:26:20.093Z,12.35
2023-02-13T01:28:47.979Z,13.75
2023-02-13T01:31:15.860Z,13.55
2023-02-13T01:33:44.941Z,12.90
2023-02-13T01:36:14.811Z,14.02
2023-02-13T01:38:42.862Z,12.20
2023-02-13T01:41:10.950Z,13.65
2023-02-13T01:43:47.849Z,14.30
2023-02-13T01:46:19.316Z,12.75
2023-02-13T01:48:50.667Z,14.10
2023-02-13T01:51:21.345Z,13.07
2023-02-13T01:53:54.513Z,13.15
2023-02-13T01:56:25.586Z,13.15
2023-02-13T01:58:56.946Z,13.13
2023-02-13T02:01:26.854Z,14.13
2023-02-13T02:03:59.703Z,15.88
2023-02-13T02:06:31.904Z,13.40
2023-02-13T02:09:02.922Z,13.70
2023-02-13T02:11:37.233Z,14.88
2023-02-13T02:14:04.912Z,13.80
2023-02-13T02:16:33.225Z,14.07
2023-02-13T02:19:05.171Z,14.25
2023-02-13T02:21:49.382Z,14.60
2023-02-13T02:24:47.461Z,15.32
2023-02-13T02:27:40.923Z,14.43
2023-02-13T02:30:59.579Z,15.10
2023-02-13T02:33:38.362Z,15.15
2023-02-13T02:36:19.069Z,13.98
2023-02-13T02:38:59.965Z,14.73
2023-02-13T02:41:45.038Z,13.93
2023-02-13T02:44:35.072Z,15.48
2023-02-13T02:47:39.251Z,14.05
2023-02-13T02:50:27.830Z,15.45
2023-02-13T02:53:07.829Z,14.77
2023-02-13T02:55:42.531Z,13.82
2023-02-13T02:58:34.515Z,14.30
2023-02-13T03:01:21.955Z,15.40
2023-02-13T03:04:08.175Z,13.80
2023-02-13T03:06:44.539Z,15.02
2023-02-13T03:09:33.897Z,14.60
2023-02-13T03:12:20.131Z,14.70
2023-02-13T03:14:47.861Z,14.65
2023-02-13T03:17:47.154Z,16.05
2023-02-13T03:20:52.387Z,15.25
2023-02-13T03:23:29.097Z,15.98
2023-02-13T03:26:11.254Z,15.25
2023-02-13T03:29:01.297Z,16.48
2023-02-13T03:31:37.379Z,16.52
2023-02-13T03:34:07.854Z,15.48
2023-02-13T03:37:02.408Z,14.40
2023-02-13T03:39:43.832Z,16.73
2023-02-13T03:42:15.898Z,15.00
2023-02-13T03:45:08.017Z,15.02
2023-02-13T03:47:36.492Z,14.60
2023-02-13T03:50:07.946Z,14.77
2023-02-13T03:52:42.500Z,17.40
2023-02-13T03:55:32.782Z,15.13
2023-02-13T03:58:20.986Z,14.23
2023-02-13T04:00:53.194Z,15.70
2023-02-13T04:03:26.937Z,15.07
2023-02-13T04:06:00.403Z,14.85
2023-02-13T04:08:28.160Z,16.63
2023-02-13T04:11:05.016Z,15.13
2023-02-13T04:13:35.941Z,16.20
2023-02-13T04:16:10.476Z,15.88
2023-02-13T04:18:39.812Z,16.05
2023-02-13T04:21:08.879Z,15.00
2023-02-13T04:23:37.156Z,14.68
2023-02-13T04:26:10.663Z,14.93
2023-02-13T04:28:38.519Z,17.30
2023-02-13T04:31:06.655Z,16.27
2023-02-13T04:33:34.489Z,16.90
2023-02-13T04:36:02.230Z,17.30
2023-02-13T04:38:29.976Z,16.85
2023-02-13T04:40:57.854Z,16.80
2023-02-13T04:43:27.031Z,17.00
2023-02-13T04:45:54.702Z,17.50
2023-02-13T04:48:22.425Z,17.33
2023-02-13T04:50:50.103Z,16.50
2023-02-13T04:53:17.766Z,15.23
2023-02-13T04:55:45.446Z,16.42
2023-02-13T04:58:13.048Z,17.63
2023-02-13T05:00:42.157Z,18.50
2023-02-13T05:03:12.331Z,18.00
2023-02-13T05:05:40.833Z,16.80
2023-02-13T05:08:10.193Z,17.40
2023-02-13T05:10:38.050Z,15.73
2023-02-13T05:13:05.798Z,15.57
2023-02-13T05:15:33.602Z,16.02
2023-02-13T05:18:02.692Z,16.65
2023-02-13T05:20:30.479Z,17.63
2023-02-13T05:23:15.872Z,18.02
2023-02-13T05:25:43.624Z,15.82
2023-02-13T05:28:31.458Z,16.50
2023-02-13T05:30:59.432Z,15.82
2023-02-13T05:33:28.759Z,17.80
2023-02-13T05:35:56.490Z,16.88
2023-02-13T05:38:24.158Z,16.27
2023-02-13T05:40:51.785Z,16.45
2023-02-13T05:43:20.481Z,18.33
2023-02-13T05:45:48.327Z,17.27
2023-02-13T05:48:15.944Z,18.90
2023-02-13T05:50:47.490Z,16.92
2023-02-13T05:53:15.160Z,17.23
2023-02-13T05:55:42.838Z,17.95
2023-02-13T05:58:11.920Z,16.88
2023-02-13T06:00:39.572Z,18.30
2023-02-13T06:03:07.301Z,17.67
2023-02-13T06:05:34.947Z,17.02
2023-02-13T06:08:04.281Z,15.90
2023-02-13T06:10:31.946Z,18.75
2023-02-13T06:12:59.709Z,16.67
2023-02-13T06:15:27.365Z,17.77
2023-02-13T06:17:55.043Z,17.40
2023-02-13T06:20:23.023Z,17.77
2023-02-13T06:22:51.733Z,16.85
2023-02-13T06:25:21.651Z,17.95
2023-02-13T06:27:49.452Z,16.52
2023-02-13T06:30:18.971Z,17.55
2023-02-13T06:32:48.448Z,17.73
2023-02-13T06:35:16.712Z,18.13
2023-02-13T06:37:44.786Z,17.40
2023-02-13T06:40:15.946Z,17.00
2023-02-13T06:42:46.180Z,18.60
2023-02-13T06:45:15.235Z,19.65
2023-02-13T06:47:43.947Z,17.88
2023-02-13T06:50:13.671Z,17.25
2023-02-13T06:52:46.225Z,19.50
2023-02-13T06:55:13.965Z,18.23
2023-02-13T06:57:42.914Z,19.10
2023-02-13T07:00:14.210Z,18.85
2023-02-13T07:02:42.214Z,19.73
2023-02-13T07:05:11.472Z,18.50
2023-02-13T07:07:41.177Z,18.20
2023-02-13T07:10:12.057Z,19.90
2023-02-13T07:12:39.817Z,19.33
2023-02-13T07:15:08.147Z,18.10
2023-02-13T07:17:37.205Z,19.30
2023-02-13T07:20:05.672Z,21.48
2023-02-13T07:22:34.061Z,19.20
2023-02-13T07:25:02.480Z,22.27
2023-02-13T07:27:30.268Z,18.90
2023-02-13T07:29:58.761Z,20.98
2023-02-13T07:32:26.950Z,21.55
2023-02-13T07:35:01.940Z,19.15
2023-02-13T07:37:31.047Z,19.02
2023-02-13T07:39:59.108Z,19.80
2023-02-13T07:42:26.918Z,20.67
2023-02-13T07:44:54.680Z,18.65
2023-02-13T07:47:22.367Z,19.05
2023-02-13T07:49:50.107Z,20.08
2023-02-13T07:52:19.252Z,22.60
2023-02-13T07:54:48.234Z,20.40
2023-02-13T07:57:16.377Z,17.95
2023-02-13T07:59:44.400Z,19.45
2023-02-13T08:02:16.338Z,20.23
2023-02-13T08:04:46.254Z,20.80
2023-02-13T08:07:14.289Z,19.60
2023-02-13T08:10:03.198Z,22.58
2023-02-13T08:12:31.570Z,22.45
2023-02-13T08:14:59.441Z,23.92
2023-02-13T08:17:27.114Z,23.35
2023-02-13T08:19:55.054Z,22.95
2023-02-13T08:22:22.814Z,23.88
2023-02-13T08:24:51.859Z,24.00
2023-02-13T08:27:19.718Z,21.05
2023-02-13T08:29:47.440Z,21.40
2023-02-13T08:32:15.701Z,21.00
2023-02-13T08:34:43.481Z,21.67
2023-02-13T08:37:11.270Z,17.55
2023-02-13T08:39:39.020Z,15.80
2023-02-13T08:42:08.115Z,15.25
2023-02-13T08:44:36.034Z,12.85
2023-02-13T08:47:03.932Z,12.43
2023-02-13T08:49:32.053Z,13.15
2023-02-13T08:52:00.684Z,11.50
2023-02-13T08:54:28.752Z,12.80
2023-02-13T08:56:57.821Z,11.03
2023-02-13T08:59:27.540Z,11.13
2023-02-13T09:01:55.331Z,10.70
2023-02-13T09:04:23.008Z,11.70
2023-02-13T09:06:50.825Z,11.30
2023-02-13T09:09:18.543Z,9.53
2023-02-13T09:11:46.224Z,9.83
2023-02-13T09:14:14.016Z,10.70
2023-02-13T09:16:43.112Z,10.80
2023-02-13T09:19:10.804Z,10.87
2023-02-13T09:21:38.511Z,10.53
2023-02-13T09:24:08.489Z,10.00
2023-02-13T09:26:36.131Z,10.37
2023-02-13T09:29:04.037Z,9.97
2023-02-13T09:31:31.806Z,9.73
2023-02-13T09:34:00.920Z,10.00
2023-02-13T09:36:28.644Z,9.60
2023-02-13T09:38:58.116Z,10.10
2023-02-13T09:41:29.512Z,9.90
2023-02-13T09:44:04.173Z,11.45
2023-02-13T09:46:35.660Z,11.93
2023-02-13T09:49:09.064Z,10.55
2023-02-13T09:51:36.946Z,10.52
2023-02-13T09:54:06.810Z,11.03
2023-02-13T09:56:41.831Z,10.60
2023-02-13T09:59:29.574Z,10.57
2023-02-13T10:02:01.664Z,10.30
2023-02-13T10:04:39.507Z,10.10
2023-02-13T10:07:19.167Z,10.20
2023-02-13T10:09:56.383Z,9.83
2023-02-13T10:12:37.470Z,11.80
2023-02-13T10:15:16.965Z,10.83
2023-02-13T10:17:48.929Z,10.90
2023-02-13T10:20:29.634Z,10.10
2023-02-13T10:23:05.176Z,10.00
2023-02-13T10:25:47.561Z,9.43
2023-02-13T10:28:20.187Z,9.70
2023-02-13T10:30:54.059Z,9.50
2023-02-13T10:33:26.940Z,10.13
2023-02-13T10:36:02.559Z,8.87
2023-02-13T10:38:32.997Z,9.80
2023-02-13T10:41:24.075Z,10.70
2023-02-13T10:44:03.820Z,8.70
2023-02-13T10:46:40.601Z,9.73
2023-02-13T10:49:23.560Z,8.37
2023-02-13T10:52:01.471Z,9.47
2023-02-13T10:54:47.923Z,9.40
2023-02-13T10:57:22.907Z,9.97
2023-02-13T11:00:04.621Z,10.27
2023-02-13T11:02:34.723Z,9.00
2023-02-13T11:05:12.266Z,8.57
2023-02-13T11:07:42.376Z,8.67
2023-02-13T11:10:18.784Z,8.20
2023-02-13T11:12:47.336Z,8.33
2023-02-13T11:15:25.770Z,8.53
2023-02-13T11:17:58.639Z,8.03
2023-02-13T11:20:34.073Z,9.13
2023-02-13T11:23:37.843Z,8.70
2023-02-13T11:26:09.240Z,8.00
2023-02-13T11:28:39.728Z,8.17
2023-02-13T11:31:13.696Z,7.50
2023-02-13T11:33:42.381Z,8.70
2023-02-13T11:36:14.727Z,7.43
2023-02-13T11:38:44.375Z,8.47
2023-02-13T11:41:15.110Z,8.20
2023-02-13T11:43:48.781Z,7.60
2023-02-13T11:46:21.048Z,7.30
2023-02-13T11:48:59.271Z,7.33
2023-02-13T11:51:42.319Z,7.40
2023-02-13T11:54:25.193Z,7.27
2023-02-13T11:57:04.407Z,6.97
2023-02-13T11:59:34.824Z,7.30
2023-02-13T12:02:14.964Z,7.23
2023-02-13T12:04:42.847Z,7.43
2023-02-13T12:07:18.252Z,8.03
2023-02-13T12:09:49.872Z,7.20
2023-02-13T12:12:22.995Z,6.80
2023-02-13T12:14:51.301Z,7.65
2023-02-13T12:17:31.460Z,7.50
2023-02-13T12:20:00.509Z,7.63
2023-02-13T12:22:35.278Z,7.25
2023-02-13T12:25:19.894Z,7.70
2023-02-13T12:27:57.610Z,7.90
2023-02-13T12:30:58.253Z,8.57
2023-02-13T12:33:45.653Z,8.15
2023-02-13T12:36:20.151Z,7.90
2023-02-13T12:39:05.895Z,9.23
2023-02-13T12:41:46.042Z,9.75
2023-02-13T12:44:45.945Z,10.18
2023-02-13T12:47:18.900Z,10.50
2023-02-13T12:50:02.104Z,10.05
2023-02-13T12:52:46.977Z,10.90
2023-02-13T12:55:30.046Z,9.93
2023-02-13T12:58:13.510Z,9.82
2023-02-13T13:00:50.549Z,9.32
2023-02-13T13:03:40.675Z,10.18
2023-02-13T13:06:19.715Z,9.93
2023-02-13T13:09:11.020Z,9.52
2023-02-13T13:12:02.026Z,9.25
2023-02-13T13:14:39.383Z,9.05
2023-02-13T13:17:13.731Z,8.75
2023-02-13T13:19:49.361Z,9.38
2023-02-13T13:22:20.981Z,9.15
2023-02-13T13:25:01.282Z,8.85
2023-02-13T13:27:34.145Z,9.77
2023-02-13T13:30:07.071Z,10.07
2023-02-13T13:32:36.497Z,9.95
2023-02-13T13:35:05.393Z,10.05
2023-02-13T13:37:38.654Z,9.70
2023-02-13T13:40:25.782Z,9.95
2023-02-13T13:43:01.791Z,9.48
2023-02-13T13:45:40.185Z,9.45
2023-02-13T13:48:29.460Z,10.27
2023-02-13T13:50:58.688Z,9.00
2023-02-13T13:53:26.566Z,9.05
2023-02-13T13:56:06.647Z,8.10
2023-02-13T13:58:38.168Z,9.40
2023-02-13T14:01:23.361Z,10.35
2023-02-13T14:03:52.170Z,9.48
2023-02-13T14:06:21.393Z,10.32
2023-02-13T14:09:08.532Z,9.50
2023-02-13T14:11:41.813Z,9.30
2023-02-13T14:14:52.494Z,10.27
2023-02-13T14:18:01.284Z,9.57
2023-02-13T14:20:38.197Z,9.80
2023-02-13T14:23:18.751Z,8.18
2023-02-13T14:25:47.684Z,8.75
2023-02-13T14:28:24.730Z,9.25
2023-02-13T14:30:56.736Z,8.93
2023-02-13T14:33:28.870Z,9.68
2023-02-13T14:36:08.473Z,9.43
2023-02-13T14:38:36.790Z,9.50
2023-02-13T14:41:07.222Z,8.88
2023-02-13T14:43:39.461Z,9.25
2023-02-13T14:46:32.872Z,8.77
2023-02-13T14:49:05.436Z,8.48
2023-02-13T14:51:39.497Z,9.52
2023-02-13T14:54:20.381Z,8.95
2023-02-13T14:56:51.545Z,9.10
2023-02-13T14:59:23.539Z,7.72
2023-02-13T15:01:54.605Z,9.50
2023-02-13T15:04:30.874Z,7.55
2023-02-13T15:07:03.325Z,8.02
2023-02-13T15:09:36.272Z,9.55
2023-02-13T15:12:03.953Z,7.95
2023-02-13T15:14:34.322Z,9.75
2023-02-13T15:17:08.041Z,8.60
2023-02-13T15:19:38.255Z,8.00
2023-02-13T15:22:08.277Z,8.43
2023-02-13T15:24:45.915Z,8.40
2023-02-13T15:27:21.006Z,8.18
2023-02-13T15:29:57.064Z,7.68
2023-02-13T15:32:29.585Z,8.32
2023-02-13T15:34:57.405Z,8.55
2023-02-13T15:37:30.015Z,8.32
2023-02-13T15:40:14.338Z,8.43
2023-02-13T15:42:42.310Z,8.48
2023-02-13T15:45:16.063Z,8.90
2023-02-13T15:47:45.162Z,8.40
2023-02-13T15:50:19.719Z,8.05
2023-02-13T15:52:49.274Z,8.15
2023-02-13T15:55:22.597Z,7.78
2023-02-13T15:57:52.316Z,7.72
2023-02-13T16:00:25.358Z,8.73
2023-02-13T16:02:56.038Z,8.75
2023-02-13T16:05:39.464Z,8.40
2023-02-13T16:11:21.781Z,8.65
2023-02-13T16:14:04.523Z,8.70
2023-02-13T16:16:36.160Z,9.07
2023-02-13T16:19:04.331Z,8.43
2023-02-13T16:21:34.541Z,8.90
2023-02-13T16:24:07.647Z,9.18
2023-02-13T16:26:39.272Z,8.68
2023-02-13T16:29:10.757Z,8.95
2023-02-13T16:31:40.254Z,8.35
2023-02-13T16:34:15.517Z,8.93
2023-02-13T16:36:43.698Z,8.75
2023-02-13T16:39:18.358Z,8.15
2023-02-13T16:41:47.567Z,10.15
2023-02-13T16:44:26.833Z,9.68
2023-02-13T16:46:56.827Z,8.38
2023-02-13T16:49:27.005Z,8.38
2023-02-13T16:52:08.885Z,9.27
2023-02-13T16:54:39.852Z,9.02
2023-02-13T16:57:22.191Z,8.98
2023-02-13T16:59:54.446Z,8.43
2023-02-13T17:02:24.265Z,9.55
2023-02-13T17:04:55.414Z,10.15
2023-02-13T17:07:26.524Z,9.38
2023-02-13T17:09:59.705Z,9.20
2023-02-13T17:12:30.237Z,10.07
2023-02-13T17:14:59.709Z,10.88
2023-02-13T17:17:29.826Z,9.70
2023-02-13T17:19:57.677Z,10.05
2023-02-13T17:22:32.042Z,9.80
2023-02-13T17:25:01.614Z,10.52
2023-02-13T17:27:30.687Z,10.85
2023-02-13T17:29:58.489Z,10.68
2023-02-13T17:32:28.117Z,10.07
2023-02-13T17:34:55.866Z,11.00
2023-02-13T17:37:25.731Z,10.70
2023-02-13T17:39:54.096Z,12.25
2023-02-13T17:42:24.787Z,10.77
2023-02-13T17:44:54.969Z,10.85
2023-02-13T17:47:23.079Z,12.18
2023-02-13T17:49:52.409Z,11.10
2023-02-13T17:52:26.751Z,12.07
2023-02-13T17:54:54.489Z,11.88
2023-02-13T17:57:22.266Z,11.30
2023-02-13T17:59:50.575Z,11.70
2023-02-13T18:02:22.104Z,10.77
2023-02-13T18:04:50.940Z,12.57
2023-02-13T18:07:21.247Z,11.10
2023-02-13T18:09:48.924Z,11.73
2023-02-13T18:12:18.789Z,12.00
2023-02-13T18:14:46.709Z,12.82
2023-02-13T18:17:14.894Z,11.48
2023-02-13T18:19:44.047Z,12.35
2023-02-13T18:22:12.822Z,11.93
2023-02-13T18:24:42.645Z,11.95
2023-02-13T18:27:12.402Z,11.43
2023-02-13T18:29:40.458Z,12.38
2023-02-13T18:32:10.488Z,12.98
2023-02-13T18:34:39.841Z,12.55
2023-02-13T18:37:09.672Z,13.45
2023-02-13T18:39:37.460Z,13.55
2023-02-13T18:42:05.645Z,13.32
2023-02-13T18:44:33.631Z,15.52
2023-02-13T18:47:01.727Z,13.80
2023-02-13T18:49:29.521Z,14.32
2023-02-13T18:51:57.341Z,12.50
2023-02-13T18:54:26.440Z,13.32
2023-02-13T18:56:54.276Z,14.88
2023-02-13T18:59:23.010Z,14.35
2023-02-13T19:01:51.042Z,14.77
2023-02-13T19:04:18.781Z,13.38
2023-02-13T19:06:46.493Z,13.02
2023-02-13T19:09:14.309Z,13.40
2023-02-13T19:11:44.362Z,13.00
2023-02-13T19:14:14.232Z,13.38
2023-02-13T19:16:42.833Z,14.10
2023-02-13T19:19:11.168Z,15.13
2023-02-13T19:21:40.328Z,15.50
2023-02-13T19:24:10.429Z,16.50
2023-02-13T19:26:38.210Z,14.60
2023-02-13T19:29:07.285Z,15.38
2023-02-13T19:31:35.545Z,14.13
2023-02-13T19:34:05.678Z,13.65
2023-02-13T19:36:33.510Z,13.63
2023-02-13T19:39:03.741Z,14.00
2023-02-13T19:41:33.007Z,15.10
2023-02-13T19:44:01.139Z,15.05
2023-02-13T19:46:31.940Z,15.05
2023-02-13T19:49:00.273Z,12.60
2023-02-13T19:51:30.117Z,14.45
2023-02-13T19:53:58.966Z,13.88
2023-02-13T19:56:28.018Z,15.45
2023-02-13T19:58:55.832Z,15.68
2023-02-13T20:01:25.186Z,15.18
2023-02-13T20:03:54.993Z,17.50
2023-02-13T20:06:25.168Z,13.70
2023-02-13T20:08:53.472Z,15.13
2023-02-13T20:11:22.798Z,16.55
2023-02-13T20:13:55.398Z,14.73
2023-02-13T20:16:24.137Z,15.35
2023-02-13T20:18:52.166Z,14.30
2023-02-13T20:21:21.607Z,14.57
2023-02-13T20:23:51.969Z,14.43
2023-02-13T20:26:20.553Z,15.32
2023-02-13T20:28:48.974Z,15.60
2023-02-13T20:31:18.883Z,13.35
2023-02-13T20:33:47.547Z,14.38
2023-02-13T20:36:17.421Z,15.63
2023-02-13T20:38:46.909Z,15.27
2023-02-13T20:41:16.933Z,15.57
2023-02-13T20:43:45.762Z,14.68
2023-02-13T20:46:15.924Z,15.10
2023-02-13T20:48:45.003Z,14.85
2023-02-13T20:51:14.609Z,14.02
2023-02-13T20:53:43.811Z,14.68
2023-02-13T20:56:14.643Z,15.25
2023-02-13T20:58:43.520Z,14.50
2023-02-13T21:01:16.269Z,14.45
2023-02-13T21:03:44.491Z,14.85
2023-02-13T21:06:13.422Z,15.80
2023-02-13T21:08:44.461Z,14.77
2023-02-13T21:11:13.592Z,16.15
2023-02-13T21:13:41.380Z,16.52
2023-02-13T21:16:11.134Z,15.80
2023-02-13T21:18:39.586Z,13.55
2023-02-13T21:21:09.113Z,16.10
2023-02-13T21:23:37.247Z,16.58
2023-02-13T21:26:06.681Z,15.93
2023-02-13T21:28:36.471Z,15.80
2023-02-13T21:31:08.724Z,14.15
2023-02-13T21:33:36.628Z,14.55
2023-02-13T21:36:06.743Z,14.20
2023-02-13T21:38:35.643Z,15.07
2023-02-13T21:41:07.112Z,13.43
2023-02-13T21:43:37.805Z,15.32
2023-02-13T21:46:10.068Z,14.93
2023-02-13T21:48:38.232Z,15.20
2023-02-13T21:51:07.153Z,15.52
2023-02-13T21:53:35.336Z,16.63
2023-02-13T21:56:04.033Z,16.65
2023-02-13T21:58:34.246Z,16.17
2023-02-13T22:01:04.308Z,15.10
2023-02-13T22:03:32.028Z,15.13
2023-02-13T22:05:59.847Z,16.50
2023-02-13T22:08:27.644Z,16.85
2023-02-13T22:10:55.978Z,16.08
2023-02-13T22:13:24.443Z,15.63
2023-02-13T22:16:00.473Z,17.23
2023-02-13T22:18:31.830Z,17.45
2023-02-13T22:21:00.303Z,18.10
2023-02-13T22:23:28.066Z,17.50
2023-02-13T22:25:55.772Z,16.67
2023-02-13T22:28:23.574Z,16.38
2023-02-13T22:30:51.684Z,16.13
2023-02-13T22:33:19.523Z,16.42
2023-02-13T22:35:49.360Z,15.88
2023-02-13T22:38:17.183Z,18.30
2023-02-13T22:40:45.179Z,18.10
2023-02-13T22:43:13.003Z,16.42
2023-02-13T22:45:41.111Z,15.73
2023-02-13T22:48:09.409Z,16.20
2023-02-13T22:50:37.217Z,16.35
2023-02-13T22:53:06.415Z,16.60
2023-02-13T22:55:34.657Z,16.45
2023-02-13T22:58:02.410Z,15.68
2023-02-13T23:00:30.174Z,16.88
2023-02-13T23:02:57.918Z,16.80
2023-02-13T23:05:25.689Z,18.35
2023-02-13T23:07:53.608Z,17.83
2023-02-13T23:10:25.897Z,17.98
2023-02-13T23:12:52.882Z,15.85
2023-02-13T23:15:20.833Z,15.45
2023-02-13T23:18:06.210Z,18.35
2023-02-13T23:20:33.932Z,16.45
2023-02-13T23:23:04.368Z,17.20
2023-02-13T23:25:33.845Z,16.55
2023-02-13T23:28:01.614Z,16.20
2023-02-13T23:30:30.148Z,15.60
2023-02-13T23:32:59.202Z,14.77
2023-02-13T23:35:27.969Z,15.48
2023-02-13T23:37:55.709Z,16.67
2023-02-13T23:40:23.584Z,15.98
2023-02-13T23:42:52.758Z,15.55
2023-02-13T23:45:20.814Z,17.42
2023-02-13T23:47:48.529Z,16.45
2023-02-13T23:50:16.362Z,17.48
2023-02-13T23:52:44.103Z,17.63
2023-02-13T23:55:11.782Z,17.70
2023-02-13T23:57:39.496Z,18.55
